createdAt,value
2022-12-18T00:00:31.538Z,43.20
2022-12-18T00:03:29.007Z,32.00
2022-12-18T00:06:05.394Z,40.90
2022-12-18T00:08:41.706Z,31.30
2022-12-18T00:11:22.498Z,40.40
2022-12-18T00:14:01.710Z,44.40
2022-12-18T00:16:38.328Z,39.80
2022-12-18T00:19:16.480Z,42.10
2022-12-18T00:21:52.544Z,42.40
2022-12-18T00:24:28.790Z,35.80
2022-12-18T00:27:04.965Z,44.90
2022-12-18T00:29:42.438Z,37.60
2022-12-18T00:32:18.724Z,45.50
2022-12-18T00:34:54.680Z,38.40
2022-12-18T00:37:30.658Z,50.30
2022-12-18T00:40:08.547Z,43.10
2022-12-18T00:43:00.023Z,45.30
2022-12-18T00:45:37.170Z,38.70
2022-12-18T00:48:13.288Z,38.50
2022-12-18T00:50:51.095Z,40.20
2022-12-18T00:53:27.161Z,49.80
2022-12-18T00:56:03.008Z,45.20
2022-12-18T00:58:39.059Z,49.80
2022-12-18T01:01:15.667Z,40.90
2022-12-18T01:03:51.933Z,34.40
2022-12-18T01:06:29.793Z,45.00
2022-12-18T01:09:06.160Z,25.80
2022-12-18T01:11:45.149Z,26.60
2022-12-18T01:14:21.237Z,30.90
2022-12-18T01:16:57.115Z,29.60
2022-12-18T01:19:33.159Z,28.80
2022-12-18T01:22:09.218Z,24.10
2022-12-18T01:24:45.074Z,21.20
2022-12-18T01:27:21.049Z,21.40
2022-12-18T01:29:57.788Z,23.10
2022-12-18T01:32:36.254Z,24.00
2022-12-18T01:35:13.945Z,23.60
2022-12-18T01:37:50.008Z,24.00
2022-12-18T01:40:26.275Z,23.10
2022-12-18T01:43:02.298Z,21.30
2022-12-18T01:45:38.280Z,23.20
2022-12-18T01:48:14.554Z,21.90
2022-12-18T01:50:51.374Z,25.80
2022-12-18T01:53:28.880Z,22.10
2022-12-18T01:56:05.568Z,20.00
2022-12-18T01:58:52.570Z,24.70
2022-12-18T02:01:31.394Z,19.00
2022-12-18T02:04:29.243Z,24.10
2022-12-18T02:07:19.235Z,25.10
2022-12-18T02:10:01.254Z,25.80
2022-12-18T02:12:50.581Z,19.20
2022-12-18T02:15:38.509Z,27.00
2022-12-18T02:18:21.427Z,25.80
2022-12-18T02:21:14.898Z,26.80
2022-12-18T02:24:05.983Z,25.20
2022-12-18T02:26:50.744Z,22.60
2022-12-18T02:29:31.888Z,25.60
2022-12-18T02:32:15.938Z,27.10
2022-12-18T02:34:55.325Z,21.30
2022-12-18T02:37:35.045Z,24.10
2022-12-18T02:40:16.290Z,23.90
2022-12-18T02:42:52.274Z,29.40
2022-12-18T02:45:28.254Z,30.10
2022-12-18T02:48:04.882Z,18.80
2022-12-18T02:50:53.280Z,16.00
2022-12-18T02:53:40.257Z,18.50
2022-12-18T02:56:23.647Z,19.50
2022-12-18T02:59:08.536Z,18.20
2022-12-18T03:02:01.275Z,18.60
2022-12-18T03:04:49.919Z,22.30
2022-12-18T03:07:40.193Z,24.30
2022-12-18T03:10:26.571Z,20.70
2022-12-18T03:13:08.030Z,22.40
2022-12-18T03:15:50.243Z,19.60
2022-12-18T03:18:32.583Z,23.40
2022-12-18T03:21:12.777Z,20.50
2022-12-18T03:23:53.799Z,24.50
2022-12-18T03:26:31.804Z,22.00
2022-12-18T03:29:16.153Z,28.10
2022-12-18T03:31:58.810Z,24.20
2022-12-18T03:34:40.595Z,24.20
2022-12-18T03:37:17.431Z,26.70
2022-12-18T03:39:53.970Z,30.30
2022-12-18T03:42:41.330Z,25.00
2022-12-18T03:45:29.511Z,36.40
2022-12-18T03:48:16.835Z,36.70
2022-12-18T03:51:01.791Z,34.60
2022-12-18T03:53:52.120Z,28.90
2022-12-18T03:56:34.068Z,33.20
2022-12-18T03:59:12.439Z,33.10
2022-12-18T04:01:54.743Z,26.60
2022-12-18T04:04:34.856Z,33.10
2022-12-18T04:07:14.887Z,30.10
2022-12-18T04:09:56.130Z,28.00
2022-12-18T04:12:34.257Z,34.50
2022-12-18T04:15:13.721Z,35.10
2022-12-18T04:17:53.104Z,39.90
2022-12-18T04:20:31.645Z,32.60
2022-12-18T04:23:08.266Z,33.00
2022-12-18T04:25:44.332Z,49.50
2022-12-18T04:28:24.477Z,43.40
2022-12-18T04:31:00.312Z,39.00
2022-12-18T04:33:37.231Z,46.40
2022-12-18T04:36:14.449Z,42.70
2022-12-18T04:38:51.003Z,45.50
2022-12-18T04:41:26.923Z,42.40
2022-12-18T04:44:02.871Z,41.70
2022-12-18T04:46:38.857Z,36.20
2022-12-18T04:49:15.647Z,34.20
2022-12-18T04:51:51.962Z,38.70
2022-12-18T04:54:27.888Z,34.50
2022-12-18T04:57:04.021Z,37.90
2022-12-18T04:59:40.051Z,36.00
2022-12-18T05:02:16.054Z,38.40
2022-12-18T05:04:52.462Z,34.80
2022-12-18T05:07:28.537Z,49.70
2022-12-18T05:10:04.800Z,38.80
2022-12-18T05:12:56.108Z,37.00
2022-12-18T05:15:35.054Z,45.10
2022-12-18T05:18:11.287Z,37.20
2022-12-18T05:20:47.252Z,34.10
2022-12-18T05:23:25.024Z,45.40
2022-12-18T05:26:04.348Z,40.60
2022-12-18T05:28:41.252Z,34.50
2022-12-18T05:31:17.605Z,45.10
2022-12-18T05:33:56.246Z,29.20
2022-12-18T05:36:32.182Z,38.40
2022-12-18T05:39:08.906Z,44.00
2022-12-18T05:41:44.786Z,40.10
2022-12-18T05:44:20.797Z,41.30
2022-12-18T05:46:57.073Z,38.40
2022-12-18T05:49:33.116Z,34.20
2022-12-18T05:52:10.043Z,42.10
2022-12-18T05:54:46.046Z,38.70
2022-12-18T05:57:22.013Z,45.20
2022-12-18T05:59:57.861Z,47.90
2022-12-18T06:02:33.818Z,27.10
2022-12-18T06:05:12.160Z,39.20
2022-12-18T06:07:48.087Z,38.70
2022-12-18T06:10:24.209Z,35.90
2022-12-18T06:13:00.003Z,43.60
2022-12-18T06:15:38.275Z,43.60
2022-12-18T06:18:14.119Z,26.50
2022-12-18T06:20:58.379Z,37.80
2022-12-18T06:23:34.253Z,44.50
2022-12-18T06:26:14.708Z,34.80
2022-12-18T06:28:50.887Z,38.60
2022-12-18T06:31:27.409Z,31.40
2022-12-18T06:34:05.932Z,34.50
2022-12-18T06:36:41.825Z,30.80
2022-12-18T06:39:17.883Z,39.10
2022-12-18T06:41:53.831Z,44.40
2022-12-18T06:44:29.896Z,39.50
2022-12-18T06:47:05.834Z,34.80
2022-12-18T06:49:41.808Z,43.10
2022-12-18T06:52:17.785Z,41.40
2022-12-18T06:54:53.725Z,43.50
2022-12-18T06:57:30.174Z,46.30
2022-12-18T07:00:08.814Z,47.30
2022-12-18T07:02:44.948Z,40.00
2022-12-18T07:05:21.367Z,43.70
2022-12-18T07:07:57.222Z,41.20
2022-12-18T07:10:33.150Z,41.90
2022-12-18T07:13:08.958Z,38.00
2022-12-18T07:15:44.888Z,46.10
2022-12-18T07:18:21.340Z,46.20
2022-12-18T07:20:57.256Z,40.40
2022-12-18T07:23:33.884Z,36.70
2022-12-18T07:26:13.326Z,46.70
2022-12-18T07:28:49.654Z,39.70
2022-12-18T07:31:28.164Z,36.30
2022-12-18T07:34:04.234Z,44.80
2022-12-18T07:36:40.229Z,38.60
2022-12-18T07:39:17.677Z,34.30
2022-12-18T07:42:07.405Z,41.30
2022-12-18T07:44:43.535Z,38.40
2022-12-18T07:47:19.517Z,36.30
2022-12-18T07:49:55.573Z,43.00
2022-12-18T07:52:31.628Z,47.40
2022-12-18T07:55:09.449Z,45.90
2022-12-18T07:57:55.426Z,48.40
2022-12-18T08:00:33.002Z,44.10
2022-12-18T08:03:08.867Z,42.40
2022-12-18T08:05:44.752Z,46.70
2022-12-18T08:08:20.713Z,50.20
2022-12-18T08:10:56.768Z,49.10
2022-12-18T08:13:33.360Z,44.60
2022-12-18T08:16:11.938Z,46.40
2022-12-18T08:18:47.868Z,46.30
2022-12-18T08:21:27.613Z,45.30
2022-12-18T08:24:05.268Z,40.10
2022-12-18T08:26:41.228Z,41.80
2022-12-18T08:29:21.478Z,40.50
2022-12-18T08:31:57.641Z,47.70
2022-12-18T08:34:33.701Z,42.30
2022-12-18T08:37:09.657Z,44.90
2022-12-18T08:39:45.814Z,37.70
2022-12-18T08:42:39.443Z,88.80
2022-12-18T08:45:16.177Z,40.60
2022-12-18T08:47:52.513Z,41.40
2022-12-18T08:50:28.396Z,43.50
2022-12-18T08:53:04.646Z,34.40
2022-12-18T08:55:41.448Z,43.50
2022-12-18T08:58:19.012Z,47.00
2022-12-18T09:00:55.323Z,41.20
2022-12-18T09:03:31.792Z,39.70
2022-12-18T09:06:09.110Z,39.50
2022-12-18T09:08:45.193Z,38.40
2022-12-18T09:11:29.922Z,37.30
2022-12-18T09:14:06.557Z,41.20
2022-12-18T09:16:42.962Z,41.40
2022-12-18T09:19:20.375Z,39.50
2022-12-18T09:21:56.326Z,38.00
2022-12-18T09:24:32.291Z,41.40
2022-12-18T09:27:08.345Z,42.00
2022-12-18T09:29:44.714Z,39.30
2022-12-18T09:32:22.578Z,37.00
2022-12-18T09:34:58.799Z,41.40
2022-12-18T09:37:34.737Z,37.60
2022-12-18T09:40:20.252Z,41.60
2022-12-18T09:43:02.832Z,35.10
2022-12-18T09:45:47.077Z,43.50
2022-12-18T09:48:32.554Z,36.90
2022-12-18T09:51:17.906Z,39.30
2022-12-18T09:54:03.887Z,35.80
2022-12-18T09:56:46.552Z,41.60
2022-12-18T09:59:34.551Z,38.90
2022-12-18T10:02:26.310Z,37.70
2022-12-18T10:08:05.984Z,49.80
2022-12-18T10:10:49.417Z,44.00
2022-12-18T10:13:41.418Z,50.60
2022-12-18T10:19:39.102Z,39.60
2022-12-18T10:22:37.677Z,45.10
2022-12-18T10:25:27.741Z,46.80
2022-12-18T10:28:16.049Z,43.60
2022-12-18T10:30:52.216Z,52.10
2022-12-18T10:33:33.512Z,42.40
2022-12-18T10:36:11.392Z,49.00
2022-12-18T10:38:48.743Z,44.90
2022-12-18T10:41:33.866Z,45.10
2022-12-18T10:44:26.870Z,43.90
2022-12-18T10:47:16.461Z,39.20
2022-12-18T10:49:58.409Z,41.10
2022-12-18T10:52:35.029Z,37.00
2022-12-18T10:55:21.895Z,41.20
2022-12-18T10:58:22.162Z,40.10
2022-12-18T11:01:17.917Z,44.40
2022-12-18T11:04:18.500Z,48.10
2022-12-18T11:07:04.564Z,46.10
2022-12-18T11:09:43.740Z,39.40
2022-12-18T11:12:26.440Z,47.90
2022-12-18T11:17:40.399Z,33.70
2022-12-18T11:20:36.243Z,33.30
2022-12-18T11:23:19.221Z,36.30
2022-12-18T11:26:04.388Z,37.40
2022-12-18T11:28:48.605Z,34.30
2022-12-18T11:31:32.442Z,38.10
2022-12-18T11:34:34.274Z,34.20
2022-12-18T11:37:13.712Z,33.00
2022-12-18T11:39:55.265Z,37.00
2022-12-18T11:42:41.597Z,34.70
2022-12-18T11:45:37.488Z,39.10
2022-12-18T11:48:23.687Z,35.00
2022-12-18T11:51:01.949Z,33.60
2022-12-18T11:53:39.272Z,40.40
2022-12-18T11:56:34.795Z,35.10
2022-12-18T11:59:32.608Z,37.80
2022-12-18T12:02:39.471Z,36.40
2022-12-18T12:05:48.791Z,38.60
2022-12-18T12:08:40.094Z,36.60
2022-12-18T12:11:29.600Z,44.90
2022-12-18T12:14:33.830Z,38.00
2022-12-18T12:17:22.478Z,34.80
2022-12-18T12:20:10.026Z,32.60
2022-12-18T12:23:02.627Z,70.50
2022-12-18T12:25:50.589Z,41.80
2022-12-18T12:29:00.105Z,35.80
2022-12-18T12:31:58.611Z,37.50
2022-12-18T12:34:47.550Z,37.50
2022-12-18T12:37:41.056Z,36.30
2022-12-18T12:40:51.388Z,35.60
2022-12-18T12:43:40.410Z,36.50
2022-12-18T12:46:23.996Z,37.90
2022-12-18T12:49:07.371Z,32.80
2022-12-18T12:51:49.186Z,35.80
2022-12-18T12:57:14.154Z,37.50
2022-12-18T13:00:07.473Z,39.90
2022-12-18T13:02:53.492Z,40.00
2022-12-18T13:05:41.702Z,43.40
2022-12-18T13:08:33.279Z,40.40
2022-12-18T13:11:59.795Z,35.40
2022-12-18T13:14:40.179Z,36.80
2022-12-18T13:17:34.751Z,42.10
2022-12-18T13:20:17.801Z,57.40
2022-12-18T13:22:56.514Z,55.40
2022-12-18T13:25:39.657Z,49.60
2022-12-18T13:28:18.879Z,42.00
2022-12-18T13:31:01.530Z,43.10
2022-12-18T13:34:24.292Z,39.70
2022-12-18T13:36:44.818Z,41.50
2022-12-18T13:39:38.528Z,40.70
2022-12-18T13:43:06.185Z,38.30
2022-12-18T13:46:04.043Z,37.70
2022-12-18T13:48:50.773Z,37.80
2022-12-18T13:51:29.885Z,37.70
2022-12-18T13:54:19.878Z,43.60
2022-12-18T13:56:56.148Z,67.30
2022-12-18T13:59:39.874Z,48.90
2022-12-18T14:02:23.720Z,42.60
2022-12-18T14:05:00.322Z,45.20
2022-12-18T14:07:41.794Z,45.20
2022-12-18T14:13:30.144Z,52.50
2022-12-18T14:16:10.107Z,41.10
2022-12-18T14:18:56.369Z,43.70
2022-12-18T14:21:39.780Z,48.30
2022-12-18T14:24:23.678Z,41.50
2022-12-18T14:27:23.005Z,44.40
2022-12-18T14:29:59.344Z,53.00
2022-12-18T14:32:35.124Z,51.80
2022-12-18T14:35:21.938Z,52.20
2022-12-18T14:38:20.516Z,55.10
2022-12-18T14:41:02.903Z,44.00
2022-12-18T14:43:43.120Z,47.80
2022-12-18T14:46:45.337Z,49.00
2022-12-18T14:49:33.681Z,47.10
2022-12-18T14:52:31.814Z,53.70
2022-12-18T14:55:16.155Z,71.90
2022-12-18T14:57:57.535Z,69.90
2022-12-18T15:00:34.100Z,46.50
2022-12-18T15:03:15.466Z,57.70
2022-12-18T15:05:52.294Z,44.30
2022-12-18T15:08:41.870Z,55.90
2022-12-18T15:14:43.389Z,64.70
2022-12-18T15:17:26.714Z,56.70
2022-12-18T15:20:15.662Z,59.20
2022-12-18T15:22:52.535Z,55.10
2022-12-18T15:25:39.647Z,56.10
2022-12-18T15:28:27.859Z,107.00
2022-12-18T15:31:30.833Z,82.10
2022-12-18T15:34:23.698Z,66.10
2022-12-18T15:37:00.146Z,55.80
2022-12-18T15:39:37.205Z,54.10
2022-12-18T15:42:33.162Z,74.70
2022-12-18T15:45:14.617Z,63.40
2022-12-18T15:47:50.794Z,68.00
2022-12-18T15:50:27.383Z,78.60
2022-12-18T15:53:05.178Z,90.00
2022-12-18T15:56:01.375Z,80.20
2022-12-18T15:58:37.435Z,67.80
2022-12-18T16:01:15.475Z,69.10
2022-12-18T16:03:51.894Z,95.20
2022-12-18T16:06:36.359Z,88.30
2022-12-18T16:09:26.070Z,67.80
2022-12-18T16:12:02.491Z,59.20
2022-12-18T16:14:39.338Z,64.60
2022-12-18T16:17:18.335Z,56.50
2022-12-18T16:19:54.707Z,63.10
2022-12-18T16:22:34.124Z,66.00
2022-12-18T16:25:18.264Z,66.30
2022-12-18T16:27:56.790Z,64.30
2022-12-18T16:30:38.144Z,54.40
2022-12-18T16:33:15.368Z,57.60
2022-12-18T16:35:59.387Z,59.30
2022-12-18T16:38:36.049Z,65.90
2022-12-18T16:41:36.519Z,71.10
2022-12-18T16:44:13.707Z,63.80
2022-12-18T16:46:50.184Z,63.90
2022-12-18T16:49:26.591Z,59.20
2022-12-18T16:52:02.916Z,57.60
2022-12-18T16:54:39.721Z,54.20
2022-12-18T16:57:20.437Z,56.50
2022-12-18T17:02:43.635Z,38.10
2022-12-18T17:05:20.138Z,44.30
2022-12-18T17:07:56.709Z,62.20
2022-12-18T17:10:32.760Z,72.50
2022-12-18T17:13:08.751Z,58.20
2022-12-18T17:15:44.757Z,56.00
2022-12-18T17:18:21.646Z,60.00
2022-12-18T17:21:02.134Z,52.40
2022-12-18T17:23:38.751Z,49.30
2022-12-18T17:26:16.335Z,59.60
2022-12-18T17:28:52.957Z,62.40
2022-12-18T17:31:31.845Z,51.30
2022-12-18T17:34:09.749Z,48.70
2022-12-18T17:36:46.176Z,52.20
2022-12-18T17:39:24.773Z,50.10
2022-12-18T17:42:01.366Z,58.50
2022-12-18T17:44:37.787Z,65.50
2022-12-18T17:47:14.229Z,53.30
2022-12-18T17:49:51.459Z,59.60
2022-12-18T17:52:28.059Z,64.40
2022-12-18T17:55:04.379Z,60.90
2022-12-18T17:57:41.017Z,65.00
2022-12-18T18:00:20.842Z,64.00
2022-12-18T18:02:57.090Z,81.70
2022-12-18T18:05:34.310Z,85.30
2022-12-18T18:08:11.401Z,82.20
2022-12-18T18:10:49.245Z,69.00
2022-12-18T18:13:47.113Z,61.00
2022-12-18T18:16:23.499Z,45.00
2022-12-18T18:19:02.164Z,59.70
2022-12-18T18:21:42.026Z,66.70
2022-12-18T18:24:23.530Z,53.90
2022-12-18T18:27:02.644Z,59.10
2022-12-18T18:29:38.789Z,59.30
2022-12-18T18:32:14.747Z,52.00
2022-12-18T18:34:50.628Z,55.90
2022-12-18T18:37:27.389Z,68.50
2022-12-18T18:40:03.888Z,62.50
2022-12-18T18:42:39.924Z,57.50
2022-12-18T18:45:17.021Z,59.60
2022-12-18T18:47:53.716Z,61.20
2022-12-18T18:50:29.843Z,57.70
2022-12-18T18:53:05.937Z,52.40
2022-12-18T18:55:42.464Z,56.90
2022-12-18T18:58:18.827Z,60.40
2022-12-18T19:01:05.216Z,61.70
2022-12-18T19:03:43.906Z,96.50
2022-12-18T19:06:24.515Z,65.00
2022-12-18T19:09:02.459Z,57.30
2022-12-18T19:11:56.429Z,55.00
2022-12-18T19:14:32.437Z,66.00
2022-12-18T19:17:09.317Z,55.10
2022-12-18T19:19:46.188Z,60.50
2022-12-18T19:22:23.069Z,54.50
2022-12-18T19:24:59.025Z,47.40
2022-12-18T19:27:36.622Z,54.10
2022-12-18T19:30:15.781Z,55.60
2022-12-18T19:32:51.703Z,44.60
2022-12-18T19:35:30.631Z,46.10
2022-12-18T19:38:06.918Z,47.60
2022-12-18T19:40:47.252Z,47.70
2022-12-18T19:43:23.489Z,37.00
2022-12-18T19:46:01.832Z,47.40
2022-12-18T19:48:40.017Z,46.80
2022-12-18T19:51:20.904Z,44.10
2022-12-18T19:54:00.515Z,44.60
2022-12-18T19:56:39.989Z,42.00
2022-12-18T19:59:16.729Z,56.10
2022-12-18T20:01:54.525Z,47.40
2022-12-18T20:04:32.208Z,58.50
2022-12-18T20:07:09.843Z,53.40
2022-12-18T20:09:46.137Z,47.50
2022-12-18T20:12:23.289Z,45.10
2022-12-18T20:15:00.027Z,96.10
2022-12-18T20:17:39.295Z,64.20
2022-12-18T20:20:17.772Z,49.90
2022-12-18T20:22:54.485Z,52.70
2022-12-18T20:25:30.438Z,55.90
2022-12-18T20:28:06.506Z,47.50
2022-12-18T20:30:43.085Z,50.30
2022-12-18T20:33:19.381Z,51.50
2022-12-18T20:35:55.439Z,47.80
2022-12-18T20:38:32.809Z,44.80
2022-12-18T20:41:18.871Z,48.40
2022-12-18T20:43:54.932Z,57.30
2022-12-18T20:46:33.532Z,57.10
2022-12-18T20:49:10.119Z,43.80
2022-12-18T20:51:49.102Z,48.20
2022-12-18T20:54:29.238Z,51.00
2022-12-18T20:57:07.416Z,40.20
2022-12-18T20:59:48.143Z,51.60
2022-12-18T21:02:25.700Z,51.10
2022-12-18T21:05:01.928Z,46.20
2022-12-18T21:07:38.041Z,47.60
2022-12-18T21:10:15.464Z,50.40
2022-12-18T21:12:59.995Z,44.80
2022-12-18T21:15:38.293Z,53.20
2022-12-18T21:18:14.296Z,47.50
2022-12-18T21:20:50.662Z,48.00
2022-12-18T21:23:26.560Z,40.00
2022-12-18T21:26:22.612Z,41.10
2022-12-18T21:29:02.925Z,51.90
2022-12-18T21:31:43.486Z,43.90
2022-12-18T21:34:25.526Z,43.10
2022-12-18T21:37:03.924Z,46.40
2022-12-18T21:39:40.120Z,50.00
2022-12-18T21:42:34.801Z,43.40
2022-12-18T21:45:13.236Z,47.50
2022-12-18T21:47:49.157Z,44.40
2022-12-18T21:50:25.130Z,52.60
2022-12-18T21:53:01.285Z,45.20
2022-12-18T21:55:37.149Z,44.90
2022-12-18T21:58:13.176Z,39.30
2022-12-18T22:00:50.620Z,42.00
2022-12-18T22:03:27.014Z,53.70
2022-12-18T22:06:09.283Z,50.50
2022-12-18T22:08:46.155Z,52.20
2022-12-18T22:11:22.236Z,50.00
2022-12-18T22:13:59.286Z,56.50
2022-12-18T22:16:35.287Z,45.30
2022-12-18T22:19:13.144Z,50.70
2022-12-18T22:21:52.897Z,58.70
2022-12-18T22:24:30.424Z,56.20
2022-12-18T22:27:06.466Z,51.00
2022-12-18T22:30:00.158Z,50.30
2022-12-18T22:32:37.580Z,48.40
2022-12-18T22:35:16.244Z,46.40
2022-12-18T22:37:52.366Z,48.00
2022-12-18T22:40:30.073Z,55.50
2022-12-18T22:43:06.426Z,41.90
2022-12-18T22:45:42.479Z,66.40
2022-12-18T22:48:18.563Z,46.30
2022-12-18T22:50:58.981Z,54.80
2022-12-18T22:53:35.576Z,61.30
2022-12-18T22:56:18.669Z,45.10
2022-12-18T22:58:58.335Z,48.80
2022-12-18T23:01:36.190Z,46.80
2022-12-18T23:04:15.236Z,50.20
2022-12-18T23:06:51.404Z,59.80
2022-12-18T23:09:27.163Z,51.90
2022-12-18T23:12:03.671Z,40.80
2022-12-18T23:14:39.519Z,47.50
2022-12-18T23:17:15.678Z,46.50
2022-12-18T23:19:51.763Z,48.50
2022-12-18T23:22:27.743Z,47.70
2022-12-18T23:25:03.530Z,45.90
2022-12-18T23:27:39.588Z,48.30
2022-12-18T23:30:17.779Z,53.50
2022-12-18T23:32:53.811Z,49.30
2022-12-18T23:35:30.632Z,47.60
2022-12-18T23:38:07.201Z,48.40
2022-12-18T23:40:43.157Z,40.60
2022-12-18T23:43:22.036Z,48.30
2022-12-18T23:45:58.085Z,48.20
2022-12-18T23:48:33.941Z,40.30
2022-12-18T23:51:15.097Z,52.40
2022-12-18T23:53:51.305Z,53.80
2022-12-18T23:56:28.851Z,47.90
2022-12-18T23:59:04.857Z,51.10
